sensor_id;sensor_type;location;lat;lon;timestamp;pressure;altitude;pressure_sealevel;temperature;humidity
41573;BME280;27286;47.870;19.006;2023-03-03T00:02:03;99525.13;;;-2.08;97.82
41573;BME280;27286;47.870;19.006;2023-03-03T00:04:28;99514.84;;;-2.16;96.77
41573;BME280;27286;47.870;19.006;2023-03-03T00:06:54;99518.25;;;-2.15;96.95
41573;BME280;27286;47.870;19.006;2023-03-03T00:09:19;99518.28;;;-2.12;97.49
41573;BME280;27286;47.870;19.006;2023-03-03T00:11:47;99517.47;;;-2.05;98.54
41573;BME280;27286;47.870;19.006;2023-03-03T00:14:30;99520.16;;;-1.96;99.62
41573;BME280;27286;47.870;19.006;2023-03-03T00:16:57;99509.06;;;-1.98;99.67
41573;BME280;27286;47.870;19.006;2023-03-03T00:19:24;99510.75;;;-2.00;99.24
41573;BME280;27286;47.870;19.006;2023-03-03T00:21:57;99510.63;;;-2.12;98.46
41573;BME280;27286;47.870;19.006;2023-03-03T00:24:36;99506.19;;;-2.28;98.11
41573;BME280;27286;47.870;19.006;2023-03-03T00:27:15;99513.03;;;-2.24;97.69
41573;BME280;27286;47.870;19.006;2023-03-03T00:29:56;99500.28;;;-2.23;97.63
41573;BME280;27286;47.870;19.006;2023-03-03T00:32:39;99502.81;;;-2.27;97.46
41573;BME280;27286;47.870;19.006;2023-03-03T00:35:29;99501.91;;;-2.32;98.00
41573;BME280;27286;47.870;19.006;2023-03-03T00:38:00;99498.41;;;-2.40;97.65
41573;BME280;27286;47.870;19.006;2023-03-03T00:40:32;99498.41;;;-2.39;97.47
41573;BME280;27286;47.870;19.006;2023-03-03T00:42:59;99500.97;;;-2.39;97.04
41573;BME280;27286;47.870;19.006;2023-03-03T00:45:47;99487.31;;;-2.43;97.40
41573;BME280;27286;47.870;19.006;2023-03-03T00:50:48;99483.22;;;-2.30;98.94
41573;BME280;27286;47.870;19.006;2023-03-03T00:53:15;99479.81;;;-2.32;99.03
41573;BME280;27286;47.870;19.006;2023-03-03T00:55:42;99478.09;;;-2.34;99.28
41573;BME280;27286;47.870;19.006;2023-03-03T00:58:08;99481.56;;;-2.26;99.20
41573;BME280;27286;47.870;19.006;2023-03-03T01:00:34;99476.44;;;-2.28;99.54
41573;BME280;27286;47.870;19.006;2023-03-03T01:03:05;99475.56;;;-2.31;99.54
41573;BME280;27286;47.870;19.006;2023-03-03T01:05:31;99476.41;;;-2.32;99.88
41573;BME280;27286;47.870;19.006;2023-03-03T01:07:57;99474.63;;;-2.36;100.00
41573;BME280;27286;47.870;19.006;2023-03-03T01:10:23;99469.47;;;-2.44;99.93
41573;BME280;27286;47.870;19.006;2023-03-03T01:12:49;99468.63;;;-2.45;99.72
41573;BME280;27286;47.870;19.006;2023-03-03T01:15:15;99461.78;;;-2.49;99.34
41573;BME280;27286;47.870;19.006;2023-03-03T01:17:41;99460.06;;;-2.50;99.15
41573;BME280;27286;47.870;19.006;2023-03-03T01:20:08;99461.78;;;-2.49;99.32
41573;BME280;27286;47.870;19.006;2023-03-03T01:22:34;99458.31;;;-2.52;99.56
41573;BME280;27286;47.870;19.006;2023-03-03T01:24:59;99456.56;;;-2.56;99.87
41573;BME280;27286;47.870;19.006;2023-03-03T01:27:28;99451.44;;;-2.59;99.82
41573;BME280;27286;47.870;19.006;2023-03-03T01:29:53;99457.44;;;-2.56;100.00
41573;BME280;27286;47.870;19.006;2023-03-03T01:32:21;99455.72;;;-2.57;100.00
41573;BME280;27286;47.870;19.006;2023-03-03T01:34:46;99459.09;;;-2.58;100.00
41573;BME280;27286;47.870;19.006;2023-03-03T01:37:12;99450.56;;;-2.63;100.00
41573;BME280;27286;47.870;19.006;2023-03-03T01:39:37;99447.97;;;-2.66;100.00
41573;BME280;27286;47.870;19.006;2023-03-03T01:42:03;99453.16;;;-2.57;100.00
41573;BME280;27286;47.870;19.006;2023-03-03T01:44:28;99449.88;;;-2.50;100.00
41573;BME280;27286;47.870;19.006;2023-03-03T01:51:57;99451.44;;;-2.59;100.00
41573;BME280;27286;47.870;19.006;2023-03-03T01:54:37;99443.81;;;-2.58;100.00
41573;BME280;27286;47.870;19.006;2023-03-03T01:57:07;99448.94;;;-2.53;100.00
41573;BME280;27286;47.870;19.006;2023-03-03T01:59:40;99443.72;;;-2.67;100.00
41573;BME280;27286;47.870;19.006;2023-03-03T02:02:07;99448.72;;;-2.73;99.83
41573;BME280;27286;47.870;19.006;2023-03-03T02:04:34;99442.75;;;-2.77;99.75
41573;BME280;27286;47.870;19.006;2023-03-03T02:07:02;99442.72;;;-2.80;99.74
41573;BME280;27286;47.870;19.006;2023-03-03T02:12:11;99440.88;;;-2.88;99.47
41573;BME280;27286;47.870;19.006;2023-03-03T02:14:37;99440.94;;;-2.85;100.00
41573;BME280;27286;47.870;19.006;2023-03-03T02:17:03;99445.16;;;-2.86;100.00
41573;BME280;27286;47.870;19.006;2023-03-03T02:21:54;99440.88;;;-2.88;100.00
41573;BME280;27286;47.870;19.006;2023-03-03T02:24:40;99447.72;;;-2.86;100.00
41573;BME280;27286;47.870;19.006;2023-03-03T02:27:07;99438.28;;;-2.93;100.00
41573;BME280;27286;47.870;19.006;2023-03-03T02:29:32;99443.38;;;-2.93;100.00
41573;BME280;27286;47.870;19.006;2023-03-03T02:31:58;99434.00;;;-2.97;100.00
41573;BME280;27286;47.870;19.006;2023-03-03T02:34:25;99435.66;;;-3.00;100.00
41573;BME280;27286;47.870;19.006;2023-03-03T02:36:50;99430.50;;;-3.04;100.00
41573;BME280;27286;47.870;19.006;2023-03-03T02:39:24;99438.19;;;-3.02;100.00
41573;BME280;27286;47.870;19.006;2023-03-03T02:44:30;99436.56;;;-2.97;100.00
41573;BME280;27286;47.870;19.006;2023-03-03T02:46:56;99437.41;;;-2.96;100.00
41573;BME280;27286;47.870;19.006;2023-03-03T02:49:33;99428.94;;;-2.95;100.00
41573;BME280;27286;47.870;19.006;2023-03-03T02:52:01;99432.31;;;-2.96;100.00
41573;BME280;27286;47.870;19.006;2023-03-03T02:54:28;99423.84;;;-2.95;100.00
41573;BME280;27286;47.870;19.006;2023-03-03T02:56:55;99434.19;;;-2.82;100.00
41573;BME280;27286;47.870;19.006;2023-03-03T02:59:20;99433.38;;;-2.78;100.00
41573;BME280;27286;47.870;19.006;2023-03-03T03:01:46;99424.03;;;-2.80;100.00
41573;BME280;27286;47.870;19.006;2023-03-03T03:04:14;99420.59;;;-2.82;100.00
41573;BME280;27286;47.870;19.006;2023-03-03T03:06:40;99419.66;;;-2.87;100.00
41573;BME280;27286;47.870;19.006;2023-03-03T03:09:07;99422.09;;;-2.98;100.00
41573;BME280;27286;47.870;19.006;2023-03-03T03:11:34;99416.88;;;-3.09;100.00
41573;BME280;27286;47.870;19.006;2023-03-03T03:14:01;99415.97;;;-3.14;100.00
41573;BME280;27286;47.870;19.006;2023-03-03T03:16:26;99421.88;;;-3.16;100.00
41573;BME280;27286;47.870;19.006;2023-03-03T03:18:52;99414.22;;;-3.18;100.00
41573;BME280;27286;47.870;19.006;2023-03-03T03:21:17;99398.00;;;-3.23;100.00
41573;BME280;27286;47.870;19.006;2023-03-03T03:23:43;99397.13;;;-3.25;100.00
41573;BME280;27286;47.870;19.006;2023-03-03T03:26:08;99404.81;;;-3.22;100.00
41573;BME280;27286;47.870;19.006;2023-03-03T03:28:34;99411.59;;;-3.22;100.00
41573;BME280;27286;47.870;19.006;2023-03-03T03:31:01;99401.34;;;-3.27;100.00
41573;BME280;27286;47.870;19.006;2023-03-03T03:33:26;99405.72;;;-3.18;100.00
41573;BME280;27286;47.870;19.006;2023-03-03T03:35:53;99402.34;;;-3.17;100.00
41573;BME280;27286;47.870;19.006;2023-03-03T03:38:20;99401.44;;;-3.19;100.00
41573;BME280;27286;47.870;19.006;2023-03-03T03:40:46;99402.34;;;-3.16;100.00
41573;BME280;27286;47.870;19.006;2023-03-03T03:43:11;99407.47;;;-3.14;100.00
41573;BME280;27286;47.870;19.006;2023-03-03T03:45:36;99404.88;;;-3.17;100.00
41573;BME280;27286;47.870;19.006;2023-03-03T03:48:02;99401.47;;;-3.18;100.00
41573;BME280;27286;47.870;19.006;2023-03-03T03:50:28;99396.25;;;-3.27;100.00
41573;BME280;27286;47.870;19.006;2023-03-03T03:52:53;99392.81;;;-3.30;100.00
41573;BME280;27286;47.870;19.006;2023-03-03T03:55:18;99396.13;;;-3.36;100.00
41573;BME280;27286;47.870;19.006;2023-03-03T03:57:44;99388.44;;;-3.41;100.00
41573;BME280;27286;47.870;19.006;2023-03-03T04:00:12;99397.84;;;-3.35;100.00
41573;BME280;27286;47.870;19.006;2023-03-03T04:02:37;99385.19;;;-3.30;100.00
41573;BME280;27286;47.870;19.006;2023-03-03T04:05:03;99385.22;;;-3.27;100.00
41573;BME280;27286;47.870;19.006;2023-03-03T04:07:29;99391.16;;;-3.27;100.00
41573;BME280;27286;47.870;19.006;2023-03-03T04:09:54;99393.72;;;-3.27;100.00
41573;BME280;27286;47.870;19.006;2023-03-03T04:12:20;99388.56;;;-3.31;100.00
41573;BME280;27286;47.870;19.006;2023-03-03T04:14:45;99392.81;;;-3.32;100.00
41573;BME280;27286;47.870;19.006;2023-03-03T04:17:18;99393.63;;;-3.35;100.00
41573;BME280;27286;47.870;19.006;2023-03-03T04:19:44;99388.44;;;-3.41;100.00
41573;BME280;27286;47.870;19.006;2023-03-03T04:22:10;99392.66;;;-3.41;100.00
41573;BME280;27286;47.870;19.006;2023-03-03T04:24:36;99374.59;;;-3.58;100.00
41573;BME280;27286;47.870;19.006;2023-03-03T04:27:02;99375.47;;;-3.57;100.00
41573;BME280;27286;47.870;19.006;2023-03-03T04:29:28;99375.47;;;-3.57;100.00
41573;BME280;27286;47.870;19.006;2023-03-03T04:31:53;99383.09;;;-3.57;100.00
41573;BME280;27286;47.870;19.006;2023-03-03T04:34:19;99384.81;;;-3.55;100.00
41573;BME280;27286;47.870;19.006;2023-03-03T04:36:44;99380.69;;;-3.50;100.00
41573;BME280;27286;47.870;19.006;2023-03-03T04:39:10;99381.56;;;-3.48;100.00
41573;BME280;27286;47.870;19.006;2023-03-03T04:41:35;99385.88;;;-3.42;100.00
41573;BME280;27286;47.870;19.006;2023-03-03T04:44:01;99386.72;;;-3.42;100.00
41573;BME280;27286;47.870;19.006;2023-03-03T04:46:26;99374.81;;;-3.43;100.00
41573;BME280;27286;47.870;19.006;2023-03-03T04:48:52;99379.94;;;-3.40;100.00
41573;BME280;27286;47.870;19.006;2023-03-03T04:51:17;99378.19;;;-3.45;100.00
41573;BME280;27286;47.870;19.006;2023-03-03T04:53:43;99379.00;;;-3.49;100.00
41573;BME280;27286;47.870;19.006;2023-03-03T04:56:08;99380.56;;;-3.57;100.00
41573;BME280;27286;47.870;19.006;2023-03-03T04:58:34;99382.25;;;-3.58;100.00
41573;BME280;27286;47.870;19.006;2023-03-03T05:00:59;99377.13;;;-3.59;100.00
41573;BME280;27286;47.870;19.006;2023-03-03T05:03:25;99372.03;;;-3.59;100.00
41573;BME280;27286;47.870;19.006;2023-03-03T05:05:51;99379.66;;;-3.61;100.00
41573;BME280;27286;47.870;19.006;2023-03-03T05:08:17;99372.81;;;-3.67;100.00
41573;BME280;27286;47.870;19.006;2023-03-03T05:10:42;99374.50;;;-3.67;100.00
41573;BME280;27286;47.870;19.006;2023-03-03T05:13:08;99377.88;;;-3.68;100.00
41573;BME280;27286;47.870;19.006;2023-03-03T05:15:34;99369.31;;;-3.72;100.00
41573;BME280;27286;47.870;19.006;2023-03-03T05:17:59;99376.94;;;-3.72;100.00
41573;BME280;27286;47.870;19.006;2023-03-03T05:20:25;99366.78;;;-3.72;100.00
41573;BME280;27286;47.870;19.006;2023-03-03T05:22:51;99360.00;;;-3.71;100.00
41573;BME280;27286;47.870;19.006;2023-03-03T05:25:16;99366.84;;;-3.69;100.00
41573;BME280;27286;47.870;19.006;2023-03-03T05:27:42;99362.53;;;-3.71;100.00
41573;BME280;27286;47.870;19.006;2023-03-03T05:30:09;99371.06;;;-3.69;100.00
41573;BME280;27286;47.870;19.006;2023-03-03T05:32:34;99364.34;;;-3.64;100.00
41573;BME280;27286;47.870;19.006;2023-03-03T05:35:00;99374.63;;;-3.56;100.00
41573;BME280;27286;47.870;19.006;2023-03-03T05:37:26;99379.81;;;-3.52;100.00
41573;BME280;27286;47.870;19.006;2023-03-03T05:39:51;99380.69;;;-3.48;100.00
41573;BME280;27286;47.870;19.006;2023-03-03T05:42:17;99384.03;;;-3.52;100.00
41573;BME280;27286;47.870;19.006;2023-03-03T05:44:42;99377.31;;;-3.49;100.00
41573;BME280;27286;47.870;19.006;2023-03-03T05:47:08;99388.44;;;-3.41;100.00
41573;BME280;27286;47.870;19.006;2023-03-03T05:49:34;99385.97;;;-3.35;100.00
41573;BME280;27286;47.870;19.006;2023-03-03T05:51:59;99386.03;;;-3.30;100.00
41573;BME280;27286;47.870;19.006;2023-03-03T05:54:25;99381.81;;;-3.29;100.00
41573;BME280;27286;47.870;19.006;2023-03-03T05:56:50;99386.91;;;-3.28;100.00
41573;BME280;27286;47.870;19.006;2023-03-03T05:59:16;99386.13;;;-3.22;100.00
41573;BME280;27286;47.870;19.006;2023-03-03T06:01:41;99382.84;;;-3.14;100.00
41573;BME280;27286;47.870;19.006;2023-03-03T06:04:07;99389.81;;;-3.02;100.00
41573;BME280;27286;47.870;19.006;2023-03-03T06:06:33;99391.56;;;-2.96;100.00
41573;BME280;27286;47.870;19.006;2023-03-03T06:08:58;99389.09;;;-2.89;100.00
41573;BME280;27286;47.870;19.006;2023-03-03T06:11:23;99394.28;;;-2.81;100.00
41573;BME280;27286;47.870;19.006;2023-03-03T06:13:49;99396.03;;;-2.76;100.00
41573;BME280;27286;47.870;19.006;2023-03-03T06:16:14;99396.94;;;-2.72;100.00
41573;BME280;27286;47.870;19.006;2023-03-03T06:18:40;99406.38;;;-2.65;100.00
41573;BME280;27286;47.870;19.006;2023-03-03T06:21:05;99410.72;;;-2.53;100.00
41573;BME280;27286;47.870;19.006;2023-03-03T06:23:31;99412.50;;;-2.48;100.00
41573;BME280;27286;47.870;19.006;2023-03-03T06:25:56;99414.25;;;-2.40;100.00
41573;BME280;27286;47.870;19.006;2023-03-03T06:28:22;99410.97;;;-2.30;100.00
41573;BME280;27286;47.870;19.006;2023-03-03T06:30:52;99414.53;;;-2.16;100.00
41573;BME280;27286;47.870;19.006;2023-03-03T06:33:17;99408.63;;;-2.07;100.00
41573;BME280;27286;47.870;19.006;2023-03-03T06:35:43;99410.44;;;-1.97;99.85
41573;BME280;27286;47.870;19.006;2023-03-03T06:38:08;99401.13;;;-1.89;99.65
41573;BME280;27286;47.870;19.006;2023-03-03T06:40:34;99408.06;;;-1.74;99.07
41573;BME280;27286;47.870;19.006;2023-03-03T06:42:59;99396.22;;;-1.66;99.00
41573;BME280;27286;47.870;19.006;2023-03-03T06:45:27;99400.56;;;-1.52;98.75
41573;BME280;27286;47.870;19.006;2023-03-03T06:47:52;99404.88;;;-1.40;98.48
41573;BME280;27286;47.870;19.006;2023-03-03T06:50:19;99400.69;;;-1.32;98.20
41573;BME280;27286;47.870;19.006;2023-03-03T06:52:45;99414.41;;;-1.17;98.36
41573;BME280;27286;47.870;19.006;2023-03-03T06:55:19;99408.50;;;-1.03;97.95
41573;BME280;27286;47.870;19.006;2023-03-03T06:57:45;99410.31;;;-0.80;97.68
41573;BME280;27286;47.870;19.006;2023-03-03T07:02:40;99411.31;;;-0.23;98.21
41573;BME280;27286;47.870;19.006;2023-03-03T07:05:11;99407.09;;;0.05;97.31
41573;BME280;27286;47.870;19.006;2023-03-03T07:07:38;99411.34;;;0.33;95.40
41573;BME280;27286;47.870;19.006;2023-03-03T07:10:17;99405.38;;;0.58;93.72
41573;BME280;27286;47.870;19.006;2023-03-03T07:12:44;99396.78;;;0.78;92.66
41573;BME280;27286;47.870;19.006;2023-03-03T07:15:22;99390.72;;;0.99;91.03
41573;BME280;27286;47.870;19.006;2023-03-03T07:17:52;99409.31;;;1.48;89.41
41573;BME280;27286;47.870;19.006;2023-03-03T07:22:54;99400.13;;;2.42;86.42
41573;BME280;27286;47.870;19.006;2023-03-03T07:25:29;99410.69;;;2.97;84.03
41573;BME280;27286;47.870;19.006;2023-03-03T07:28:25;99402.16;;;3.63;81.89
41573;BME280;27286;47.870;19.006;2023-03-03T07:30:52;99398.75;;;4.19;80.62
41573;BME280;27286;47.870;19.006;2023-03-03T07:33:56;99403.00;;;4.73;78.97
41573;BME280;27286;47.870;19.006;2023-03-03T07:36:37;99404.88;;;5.51;74.98
41573;BME280;27286;47.870;19.006;2023-03-03T07:39:38;99406.94;;;6.14;72.25
41573;BME280;27286;47.870;19.006;2023-03-03T07:43:00;99402.72;;;6.80;69.34
41573;BME280;27286;47.870;19.006;2023-03-03T07:45:32;99393.06;;;9.54;59.75
41573;BME280;27286;47.870;19.006;2023-03-03T07:48:30;99390.66;;;13.00;47.68
41573;BME280;27286;47.870;19.006;2023-03-03T07:51:04;99380.91;;;15.20;41.89
41573;BME280;27286;47.870;19.006;2023-03-03T07:53:33;99384.88;;;16.63;38.41
41573;BME280;27286;47.870;19.006;2023-03-03T07:56:00;99376.38;;;17.49;36.88
41573;BME280;27286;47.870;19.006;2023-03-03T07:58:39;99376.25;;;18.58;34.95
41573;BME280;27286;47.870;19.006;2023-03-03T08:03:56;99369.84;;;20.51;32.10
41573;BME280;27286;47.870;19.006;2023-03-03T08:11:48;99368.84;;;21.95;29.66
41573;BME280;27286;47.870;19.006;2023-03-03T08:14:21;99368.44;;;21.40;29.48
41573;BME280;27286;47.870;19.006;2023-03-03T08:16:49;99369.63;;;22.07;29.45
41573;BME280;27286;47.870;19.006;2023-03-03T08:19:16;99365.72;;;22.88;28.76
41573;BME280;27286;47.870;19.006;2023-03-03T08:21:42;99363.06;;;22.88;28.08
41573;BME280;27286;47.870;19.006;2023-03-03T08:24:07;99365.50;;;23.19;27.18
41573;BME280;27286;47.870;19.006;2023-03-03T08:26:33;99362.84;;;23.46;27.12
41573;BME280;27286;47.870;19.006;2023-03-03T08:28:58;99358.88;;;22.18;28.93
41573;BME280;27286;47.870;19.006;2023-03-03T08:31:25;99353.28;;;20.06;30.57
41573;BME280;27286;47.870;19.006;2023-03-03T08:33:51;99359.16;;;19.55;32.53
41573;BME280;27286;47.870;19.006;2023-03-03T08:36:16;99347.63;;;19.67;31.96
41573;BME280;27286;47.870;19.006;2023-03-03T08:38:42;99353.38;;;20.16;31.58
41573;BME280;27286;47.870;19.006;2023-03-03T08:41:07;99366.63;;;20.68;30.50
41573;BME280;27286;47.870;19.006;2023-03-03T08:43:33;99352.09;;;20.42;30.40
41573;BME280;27286;47.870;19.006;2023-03-03T08:46:01;99357.69;;;19.73;31.78
41573;BME280;27286;47.870;19.006;2023-03-03T08:48:27;99359.13;;;19.10;32.68
41573;BME280;27286;47.870;19.006;2023-03-03T08:50:53;99364.16;;;19.02;32.85
41573;BME280;27286;47.870;19.006;2023-03-03T08:53:19;99362.94;;;18.95;32.06
41573;BME280;27286;47.870;19.006;2023-03-03T08:55:45;99358.81;;;20.03;31.54
41573;BME280;27286;47.870;19.006;2023-03-03T08:58:12;99361.69;;;19.57;30.44
41573;BME280;27286;47.870;19.006;2023-03-03T09:00:38;99357.09;;;19.70;31.53
41573;BME280;27286;47.870;19.006;2023-03-03T09:03:04;99358.44;;;20.51;31.35
41573;BME280;27286;47.870;19.006;2023-03-03T09:05:34;99354.25;;;20.99;30.15
41573;BME280;27286;47.870;19.006;2023-03-03T09:08:00;99364.63;;;18.61;33.20
41573;BME280;27286;47.870;19.006;2023-03-03T09:10:26;99370.63;;;16.80;35.31
41573;BME280;27286;47.870;19.006;2023-03-03T09:12:55;99363.97;;;16.74;35.82
41573;BME280;27286;47.870;19.006;2023-03-03T09:15:34;99357.97;;;17.36;35.80
41573;BME280;27286;47.870;19.006;2023-03-03T09:18:15;99362.78;;;17.42;35.17
41573;BME280;27286;47.870;19.006;2023-03-03T09:20:46;99357.81;;;17.99;34.17
41573;BME280;27286;47.870;19.006;2023-03-03T09:23:24;99361.72;;;18.77;33.02
41573;BME280;27286;47.870;19.006;2023-03-03T09:25:52;99361.88;;;18.98;32.09
41573;BME280;27286;47.870;19.006;2023-03-03T09:28:30;99349.44;;;19.33;31.68
41573;BME280;27286;47.870;19.006;2023-03-03T09:31:01;99370.16;;;19.04;31.76
41573;BME280;27286;47.870;19.006;2023-03-03T09:33:30;99355.78;;;19.42;31.91
41573;BME280;27286;47.870;19.006;2023-03-03T09:36:18;99360.44;;;19.27;32.03
41573;BME280;27286;47.870;19.006;2023-03-03T09:38:46;99352.19;;;20.08;30.57
41573;BME280;27286;47.870;19.006;2023-03-03T09:44:02;99360.53;;;19.93;31.39
41573;BME280;27286;47.870;19.006;2023-03-03T09:49:30;99349.97;;;21.29;28.81
41573;BME280;27286;47.870;19.006;2023-03-03T09:55:06;99350.94;;;20.77;28.66
41573;BME280;27286;47.870;19.006;2023-03-03T09:57:49;99344.97;;;20.10;31.15
41573;BME280;27286;47.870;19.006;2023-03-03T10:06:02;99360.75;;;20.33;30.57
41573;BME280;27286;47.870;19.006;2023-03-03T10:08:53;99353.53;;;20.67;30.17
41573;BME280;27286;47.870;19.006;2023-03-03T10:12:18;99357.28;;;20.85;29.53
41573;BME280;27286;47.870;19.006;2023-03-03T10:15:00;99351.78;;;19.81;31.46
41573;BME280;27286;47.870;19.006;2023-03-03T10:23:17;99354.34;;;20.47;30.14
41573;BME280;27286;47.870;19.006;2023-03-03T10:26:12;99352.75;;;20.23;30.07
41573;BME280;27286;47.870;19.006;2023-03-03T10:45:57;99324.56;;;23.66;24.16
41573;BME280;27286;47.870;19.006;2023-03-03T10:51:28;99316.28;;;23.15;24.48
41573;BME280;27286;47.870;19.006;2023-03-03T10:56:33;99309.13;;;24.77;23.18
41573;BME280;27286;47.870;19.006;2023-03-03T11:01:57;99302.16;;;24.32;23.50
41573;BME280;27286;47.870;19.006;2023-03-03T11:07:34;99299.28;;;24.69;23.20
41573;BME280;27286;47.870;19.006;2023-03-03T11:10:14;99295.56;;;25.64;22.95
41573;BME280;27286;47.870;19.006;2023-03-03T11:18:34;99291.75;;;24.21;23.60
41573;BME280;27286;47.870;19.006;2023-03-03T11:21:14;99278.66;;;22.92;24.42
41573;BME280;27286;47.870;19.006;2023-03-03T11:32:20;99279.84;;;22.60;26.36
41573;BME280;27286;47.870;19.006;2023-03-03T11:40:01;99273.03;;;23.95;23.95
41573;BME280;27286;47.870;19.006;2023-03-03T11:45:02;99273.28;;;21.18;26.14
41573;BME280;27286;47.870;19.006;2023-03-03T11:47:58;99274.13;;;19.72;27.54
41573;BME280;27286;47.870;19.006;2023-03-03T11:56:27;99257.69;;;16.01;32.87
41573;BME280;27286;47.870;19.006;2023-03-03T11:59:01;99263.00;;;15.86;34.59
41573;BME280;27286;47.870;19.006;2023-03-03T12:01:35;99275.53;;;15.69;34.74
41573;BME280;27286;47.870;19.006;2023-03-03T12:04:08;99277.63;;;15.63;35.75
41573;BME280;27286;47.870;19.006;2023-03-03T12:12:15;99275.28;;;16.13;34.41
41573;BME280;27286;47.870;19.006;2023-03-03T12:17:37;99284.91;;;16.77;33.12
41573;BME280;27286;47.870;19.006;2023-03-03T12:28:19;99253.56;;;17.36;34.05
41573;BME280;27286;47.870;19.006;2023-03-03T12:36:31;99253.09;;;17.42;33.61
41573;BME280;27286;47.870;19.006;2023-03-03T12:40:02;99270.34;;;17.83;33.28
41573;BME280;27286;47.870;19.006;2023-03-03T12:42:37;99267.94;;;17.43;34.03
41573;BME280;27286;47.870;19.006;2023-03-03T12:47:50;99271.31;;;16.96;34.35
41573;BME280;27286;47.870;19.006;2023-03-03T12:53:19;99272.81;;;15.97;35.21
41573;BME280;27286;47.870;19.006;2023-03-03T12:56:00;99270.53;;;15.37;34.88
41573;BME280;27286;47.870;19.006;2023-03-03T13:01:47;99256.66;;;15.49;34.30
41573;BME280;27286;47.870;19.006;2023-03-03T13:04:37;99258.28;;;15.38;34.37
41573;BME280;27286;47.870;19.006;2023-03-03T13:20:48;99247.00;;;15.64;33.46
41573;BME280;27286;47.870;19.006;2023-03-03T13:23:39;99257.09;;;15.15;34.26
41573;BME280;27286;47.870;19.006;2023-03-03T13:26:25;99255.63;;;14.68;36.17
41573;BME280;27286;47.870;19.006;2023-03-03T13:29:14;99252.16;;;14.23;36.38
41573;BME280;27286;47.870;19.006;2023-03-03T13:34:50;99246.38;;;14.18;38.10
41573;BME280;27286;47.870;19.006;2023-03-03T13:37:22;99241.56;;;14.10;36.37
41573;BME280;27286;47.870;19.006;2023-03-03T13:40:02;99240.16;;;14.05;36.81
41573;BME280;27286;47.870;19.006;2023-03-03T13:42:39;99238.38;;;14.05;37.39
41573;BME280;27286;47.870;19.006;2023-03-03T13:45:29;99220.63;;;13.50;35.83
41573;BME280;27286;47.870;19.006;2023-03-03T14:07:20;99234.69;;;12.01;41.47
41573;BME280;27286;47.870;19.006;2023-03-03T14:12:54;99228.53;;;11.85;40.78
41573;BME280;27286;47.870;19.006;2023-03-03T14:15:31;99229.25;;;11.70;41.17
41573;BME280;27286;47.870;19.006;2023-03-03T14:20:40;99218.13;;;11.49;41.71
41573;BME280;27286;47.870;19.006;2023-03-03T14:23:13;99220.19;;;11.42;41.26
41573;BME280;27286;47.870;19.006;2023-03-03T14:25:58;99215.47;;;11.32;42.80
41573;BME280;27286;47.870;19.006;2023-03-03T14:28:44;99218.16;;;11.30;42.79
41573;BME280;27286;47.870;19.006;2023-03-03T14:31:39;99226.59;;;11.35;43.95
41573;BME280;27286;47.870;19.006;2023-03-03T14:36:38;99224.28;;;11.29;42.66
41573;BME280;27286;47.870;19.006;2023-03-03T14:41:48;99215.56;;;11.30;41.66
41573;BME280;27286;47.870;19.006;2023-03-03T14:44:23;99209.91;;;11.21;42.24
41573;BME280;27286;47.870;19.006;2023-03-03T14:49:35;99221.13;;;11.04;43.03
41573;BME280;27286;47.870;19.006;2023-03-03T14:54:54;99212.06;;;10.94;45.37
41573;BME280;27286;47.870;19.006;2023-03-03T14:57:38;99217.53;;;10.88;44.84
41573;BME280;27286;47.870;19.006;2023-03-03T15:02:43;99219.94;;;10.73;44.41
41573;BME280;27286;47.870;19.006;2023-03-03T15:05:27;99227.41;;;10.62;44.73
41573;BME280;27286;47.870;19.006;2023-03-03T15:07:56;99224.19;;;10.55;45.24
41573;BME280;27286;47.870;19.006;2023-03-03T15:10:35;99219.34;;;10.48;44.42
41573;BME280;27286;47.870;19.006;2023-03-03T15:16:25;99221.31;;;10.22;44.68
41573;BME280;27286;47.870;19.006;2023-03-03T15:21:48;99216.03;;;10.04;45.59
41573;BME280;27286;47.870;19.006;2023-03-03T15:25:23;99217.22;;;9.97;45.49
41573;BME280;27286;47.870;19.006;2023-03-03T15:28:09;99214.81;;;9.92;45.45
41573;BME280;27286;47.870;19.006;2023-03-03T15:30:46;99217.34;;;9.93;44.71
41573;BME280;27286;47.870;19.006;2023-03-03T15:35:56;99220.72;;;9.75;45.32
41573;BME280;27286;47.870;19.006;2023-03-03T15:41:33;99227.59;;;9.54;45.97
41573;BME280;27286;47.870;19.006;2023-03-03T15:44:21;99232.63;;;9.37;46.24
41573;BME280;27286;47.870;19.006;2023-03-03T15:47:22;99209.19;;;9.17;46.66
41573;BME280;27286;47.870;19.006;2023-03-03T15:57:58;99222.78;;;8.78;47.49
41573;BME280;27286;47.870;19.006;2023-03-03T16:02:59;99222.09;;;8.50;48.81
41573;BME280;27286;47.870;19.006;2023-03-03T16:05:54;99229.22;;;8.44;48.58
41573;BME280;27286;47.870;19.006;2023-03-03T16:08:28;99231.22;;;8.36;49.35
41573;BME280;27286;47.870;19.006;2023-03-03T16:19:44;99229.47;;;7.61;51.46
41573;BME280;27286;47.870;19.006;2023-03-03T16:22:20;99230.81;;;7.46;52.20
41573;BME280;27286;47.870;19.006;2023-03-03T16:30:35;99226.00;;;7.34;53.02
41573;BME280;27286;47.870;19.006;2023-03-03T16:36:02;99235.47;;;7.07;53.80
41573;BME280;27286;47.870;19.006;2023-03-03T16:41:02;99240.81;;;6.71;55.27
41573;BME280;27286;47.870;19.006;2023-03-03T16:49:32;99249.03;;;6.56;56.17
41573;BME280;27286;47.870;19.006;2023-03-03T16:52:11;99244.66;;;6.58;56.19
41573;BME280;27286;47.870;19.006;2023-03-03T16:59:54;99249.47;;;6.41;57.03
41573;BME280;27286;47.870;19.006;2023-03-03T17:09:02;99258.13;;;6.38;57.55
41573;BME280;27286;47.870;19.006;2023-03-03T17:17:43;99263.06;;;6.15;58.57
41573;BME280;27286;47.870;19.006;2023-03-03T17:23:32;99267.91;;;6.27;58.25
41573;BME280;27286;47.870;19.006;2023-03-03T17:45:07;99267.63;;;5.68;60.69
41573;BME280;27286;47.870;19.006;2023-03-03T17:56:09;99270.66;;;5.50;61.68
41573;BME280;27286;47.870;19.006;2023-03-03T18:07:01;99272.22;;;5.18;63.12